Time;durP1;ratioP1;P1;durP2;ratioP2;P2;SDS_P1;SDS_P2;PMS_P1;PMS_P2;Temp;Humidity;BMP_temperature;BMP_pressure;BME280_temperature;BME280_humidity;BME280_pressure;Samples;Min_cycle;Max_cycle;Signal;HPM_P1;HPM_P2
2023/09/09 00:01:49;;;;;;;8.55;7.65;;;17.90;99.90;;;;;;5026496;28;20089;-86
2023/09/09 00:04:15;;;;;;;8.35;6.90;;;17.90;99.90;;;;;;5038719;28;20037;-85
2023/09/09 00:06:41;;;;;;;8.65;7.75;;;17.90;99.90;;;;;;5032474;28;20155;-87
2023/09/09 00:09:06;;;;;;;9.57;8.18;;;17.80;99.90;;;;;;4998984;28;20157;-86
2023/09/09 00:11:32;;;;;;;9.43;8.43;;;17.80;99.90;;;;;;5009158;28;20065;-86
2023/09/09 00:13:57;;;;;;;9.88;8.88;;;17.80;99.90;;;;;;5034497;28;20052;-86
2023/09/09 00:16:23;;;;;;;9.93;8.90;;;17.70;99.90;;;;;;4995400;28;20037;-86
2023/09/09 00:18:49;;;;;;;9.82;8.82;;;17.80;99.90;;;;;;5031155;28;20052;-86
2023/09/09 00:21:14;;;;;;;10.40;9.23;;;17.70;99.90;;;;;;5014970;28;20145;-86
2023/09/09 00:23:40;;;;;;;9.02;8.02;;;17.70;99.90;;;;;;5012484;28;20029;-86
2023/09/09 00:26:05;;;;;;;9.77;8.63;;;17.70;99.90;;;;;;5031987;28;20708;-86
2023/09/09 00:28:32;;;;;;;7.63;6.90;;;17.70;99.90;;;;;;5055126;28;20033;-86
2023/09/09 00:30:58;;;;;;;11.07;9.02;;;17.60;99.90;;;;;;5041221;28;20045;-86
2023/09/09 00:33:24;;;;;;;10.30;9.13;;;17.60;99.90;;;;;;5044839;28;20038;-86
2023/09/09 00:35:49;;;;;;;7.43;6.55;;;17.60;99.90;;;;;;5013897;28;20049;-86
2023/09/09 00:38:15;;;;;;;9.18;8.27;;;17.60;99.90;;;;;;5005132;28;20123;-86
2023/09/09 00:40:44;;;;;;;8.85;7.95;;;17.50;99.90;;;;;;5002568;28;20068;-85
2023/09/09 00:43:10;;;;;;;8.40;7.25;;;17.50;99.90;;;;;;5030089;28;20496;-86
2023/09/09 00:45:38;;;;;;;8.30;6.80;;;17.50;99.90;;;;;;5014923;28;20103;-86
2023/09/09 00:48:03;;;;;;;8.88;7.97;;;17.50;99.90;;;;;;5055426;28;20045;-87
2023/09/09 00:50:29;;;;;;;9.32;8.07;;;17.40;99.90;;;;;;5012246;28;20102;-86
2023/09/09 00:52:55;;;;;;;7.85;6.43;;;17.50;99.90;;;;;;5012964;28;20499;-86
2023/09/09 00:55:23;;;;;;;8.60;7.05;;;17.40;99.90;;;;;;5003951;28;20051;-86
2023/09/09 00:57:49;;;;;;;11.10;8.75;;;17.40;99.90;;;;;;5039805;28;20116;-86
2023/09/09 01:00:17;;;;;;;10.68;8.70;;;17.40;99.90;;;;;;5035703;28;20132;-85
2023/09/09 01:02:43;;;;;;;11.02;8.00;;;17.40;99.90;;;;;;5002225;28;20886;-86
2023/09/09 01:05:10;;;;;;;12.15;8.93;;;17.30;99.90;;;;;;5008073;28;20037;-86
2023/09/09 01:07:43;;;;;;;9.93;7.85;;;17.40;99.90;;;;;;5037524;28;20059;-85
2023/09/09 01:10:09;;;;;;;7.60;6.63;;;17.30;99.90;;;;;;5024426;28;20469;-86
2023/09/09 01:12:35;;;;;;;9.80;8.07;;;17.20;99.90;;;;;;5055294;28;20119;-86
2023/09/09 01:15:02;;;;;;;10.93;8.95;;;17.20;99.90;;;;;;5021947;28;20052;-86
2023/09/09 01:17:28;;;;;;;8.63;7.35;;;17.20;99.90;;;;;;5030539;28;20088;-86
2023/09/09 01:19:58;;;;;;;9.30;7.13;;;17.10;99.90;;;;;;5025535;28;20044;-86
2023/09/09 01:22:24;;;;;;;9.18;8.18;;;17.10;99.90;;;;;;5026384;28;20817;-86
2023/09/09 01:24:49;;;;;;;9.75;8.30;;;17.20;99.90;;;;;;5016134;28;20036;-86
2023/09/09 01:27:15;;;;;;;8.57;7.03;;;17.20;99.90;;;;;;5038377;28;20037;-86
2023/09/09 01:29:40;;;;;;;9.00;8.07;;;17.20;99.90;;;;;;5059442;28;20075;-86
2023/09/09 01:32:06;;;;;;;10.02;8.50;;;17.20;99.90;;;;;;5030850;28;20136;-86
2023/09/09 01:34:31;;;;;;;8.75;7.85;;;17.10;99.90;;;;;;5001839;28;20135;-86
2023/09/09 01:36:57;;;;;;;7.50;6.75;;;17.10;99.90;;;;;;5017768;28;20049;-87
2023/09/09 01:39:26;;;;;;;7.85;5.43;;;17.10;99.90;;;;;;5003750;28;20129;-87
2023/09/09 01:41:51;;;;;;;8.30;7.50;;;17.10;99.90;;;;;;5021016;28;20441;-86
2023/09/09 01:44:17;;;;;;;7.25;6.55;;;17.00;99.90;;;;;;5011130;28;20095;-86
2023/09/09 01:46:43;;;;;;;9.10;7.80;;;17.10;99.90;;;;;;5020798;28;20076;-86
2023/09/09 01:49:08;;;;;;;10.50;9.32;;;17.10;99.90;;;;;;5016002;28;20494;-86
2023/09/09 01:51:34;;;;;;;10.63;8.57;;;17.10;99.90;;;;;;5029859;28;20045;-86
2023/09/09 01:54:00;;;;;;;11.40;9.73;;;17.10;99.90;;;;;;5042588;28;20046;-86
2023/09/09 01:56:25;;;;;;;10.50;9.45;;;17.00;99.90;;;;;;5018142;28;20060;-86
2023/09/09 01:58:54;;;;;;;11.23;10.10;;;17.10;99.90;;;;;;5055969;28;20041;-86
2023/09/09 02:01:19;;;;;;;13.45;10.90;;;17.10;99.90;;;;;;5010420;28;20041;-86
2023/09/09 02:03:47;;;;;;;11.73;9.98;;;17.10;99.90;;;;;;5027524;28;20111;-86
2023/09/09 02:06:12;;;;;;;14.52;10.95;;;17.10;99.90;;;;;;5054003;28;20103;-86
2023/09/09 02:08:38;;;;;;;11.02;9.00;;;17.10;99.90;;;;;;5004603;28;20037;-85
2023/09/09 02:11:12;;;;;;;10.40;9.32;;;17.10;99.90;;;;;;5023371;28;20116;-86
2023/09/09 02:13:40;;;;;;;11.35;9.75;;;17.10;99.90;;;;;;5039176;28;20037;-86
2023/09/09 02:16:09;;;;;;;12.95;11.55;;;17.00;99.90;;;;;;5030766;28;20037;-86
2023/09/09 02:18:39;;;;;;;13.23;10.60;;;17.10;99.90;;;;;;5026263;28;20049;-86
2023/09/09 02:21:06;;;;;;;12.65;11.15;;;17.00;99.90;;;;;;5015046;28;20040;-86
2023/09/09 02:23:32;;;;;;;12.98;11.57;;;17.00;99.90;;;;;;5027964;28;20043;-86
2023/09/09 02:25:58;;;;;;;13.48;11.65;;;17.00;99.90;;;;;;5028226;28;20040;-86
2023/09/09 02:28:24;;;;;;;13.55;11.75;;;17.00;99.90;;;;;;5016733;28;20428;-85
2023/09/09 02:30:50;;;;;;;12.40;11.02;;;17.00;99.90;;;;;;5032638;28;20041;-85
2023/09/09 02:33:16;;;;;;;14.63;12.55;;;17.00;99.90;;;;;;5020130;28;20048;-86
2023/09/09 02:35:42;;;;;;;16.55;13.18;;;16.90;99.90;;;;;;5006929;28;20048;-85
2023/09/09 02:38:08;;;;;;;13.40;11.95;;;16.90;99.90;;;;;;5015703;28;20060;-85
2023/09/09 02:40:33;;;;;;;17.13;12.93;;;17.00;99.90;;;;;;5023208;28;20041;-85
2023/09/09 02:42:59;;;;;;;16.25;11.63;;;16.90;99.90;;;;;;5030041;28;20403;-85
2023/09/09 02:45:24;;;;;;;16.02;12.05;;;16.90;99.90;;;;;;5030196;28;20136;-85
2023/09/09 02:47:50;;;;;;;13.02;11.65;;;16.90;99.90;;;;;;5014332;28;20057;-85
2023/09/09 02:50:16;;;;;;;15.57;12.95;;;16.90;99.90;;;;;;5018908;28;20176;-85
2023/09/09 02:52:44;;;;;;;16.92;13.60;;;16.90;99.90;;;;;;5009516;28;20037;-85
2023/09/09 02:55:10;;;;;;;16.63;14.32;;;16.90;99.90;;;;;;4999617;28;20198;-85
2023/09/09 02:57:36;;;;;;;16.50;13.50;;;16.90;99.90;;;;;;5010582;28;20530;-85
2023/09/09 03:00:02;;;;;;;7.80;7.10;;;16.80;99.90;;;;;;5026965;28;20425;-85
2023/09/09 03:02:28;;;;;;;7.63;6.82;;;16.80;99.90;;;;;;5025671;28;20033;-85
2023/09/09 03:04:53;;;;;;;14.00;11.20;;;16.70;99.90;;;;;;5031315;28;20115;-85
2023/09/09 03:07:19;;;;;;;15.35;12.93;;;16.70;99.90;;;;;;5032793;28;20040;-85
2023/09/09 03:09:45;;;;;;;14.75;12.50;;;16.70;99.90;;;;;;5010896;28;20434;-85
2023/09/09 03:12:11;;;;;;;18.20;15.57;;;16.70;99.90;;;;;;5044260;28;20194;-85
2023/09/09 03:14:37;;;;;;;18.65;15.20;;;16.70;99.90;;;;;;5014462;28;20228;-85
2023/09/09 03:17:03;;;;;;;19.25;14.43;;;16.70;99.90;;;;;;5014629;28;20123;-84
2023/09/09 03:19:28;;;;;;;16.60;14.35;;;16.70;99.90;;;;;;5019361;28;20038;-84
2023/09/09 03:21:54;;;;;;;22.75;14.40;;;16.70;99.90;;;;;;5020847;28;20041;-85
2023/09/09 03:24:19;;;;;;;16.42;13.27;;;16.70;99.90;;;;;;5020115;28;20196;-84
2023/09/09 03:26:45;;;;;;;17.92;14.80;;;16.70;99.90;;;;;;5011160;28;20120;-85
2023/09/09 03:29:10;;;;;;;12.48;11.18;;;16.60;99.90;;;;;;5029740;28;20052;-85
2023/09/09 03:31:36;;;;;;;13.13;11.52;;;16.60;99.90;;;;;;5016680;28;20040;-84
2023/09/09 03:34:02;;;;;;;19.30;16.73;;;16.60;99.90;;;;;;5037588;28;20043;-84
2023/09/09 03:36:30;;;;;;;17.50;15.60;;;16.60;99.90;;;;;;5011450;28;20045;-84
2023/09/09 03:38:56;;;;;;;18.27;15.95;;;16.60;99.90;;;;;;4994478;28;20519;-85
2023/09/09 03:41:21;;;;;;;15.07;13.48;;;16.50;99.90;;;;;;5008508;28;20124;-84
2023/09/09 03:43:48;;;;;;;19.42;16.67;;;16.50;99.90;;;;;;5015939;28;20519;-84
2023/09/09 03:46:13;;;;;;;19.58;16.13;;;16.60;99.90;;;;;;5014001;28;20049;-85
2023/09/09 03:48:39;;;;;;;17.75;15.30;;;16.60;99.90;;;;;;5007094;28;20042;-85
2023/09/09 03:51:05;;;;;;;17.80;15.13;;;16.50;99.90;;;;;;5002081;28;20053;-84
2023/09/09 03:53:30;;;;;;;20.55;17.52;;;16.60;99.90;;;;;;5008440;28;20029;-84
2023/09/09 03:56:01;;;;;;;15.77;13.80;;;16.60;99.90;;;;;;5013265;28;20037;-84
2023/09/09 03:58:27;;;;;;;17.30;13.30;;;16.50;99.90;;;;;;5031324;28;20038;-84
2023/09/09 04:01:07;;;;;;;18.88;13.65;;;16.40;99.90;;;;;;5013513;28;20059;-85
2023/09/09 04:03:34;;;;;;;16.38;12.82;;;16.50;99.90;;;;;;5049110;28;20033;-84
2023/09/09 04:06:06;;;;;;;13.02;11.57;;;16.40;99.90;;;;;;5017798;28;20041;-85
2023/09/09 04:08:35;;;;;;;20.13;17.17;;;16.40;99.90;;;;;;5013530;28;20041;-84
2023/09/09 04:11:02;;;;;;;20.92;18.10;;;16.50;99.90;;;;;;5020630;28;20049;-85
2023/09/09 04:13:28;;;;;;;23.50;17.63;;;16.50;99.90;;;;;;5016182;28;20037;-85
2023/09/09 04:15:56;;;;;;;20.00;17.63;;;16.50;99.90;;;;;;5028172;28;20056;-84
2023/09/09 04:18:26;;;;;;;21.13;17.25;;;16.50;99.90;;;;;;5049328;28;20034;-84
2023/09/09 04:20:52;;;;;;;22.88;17.55;;;16.40;99.90;;;;;;5021752;28;20504;-84
2023/09/09 04:23:18;;;;;;;22.52;17.95;;;16.40;99.90;;;;;;5018511;28;20103;-85
2023/09/09 04:25:45;;;;;;;19.88;17.10;;;16.40;99.90;;;;;;5039009;28;20542;-84
2023/09/09 04:28:11;;;;;;;19.70;17.58;;;16.40;99.90;;;;;;5024996;28;20603;-84
2023/09/09 04:30:40;;;;;;;17.90;14.85;;;16.50;99.90;;;;;;5009676;28;20080;-84
2023/09/09 04:33:07;;;;;;;19.23;15.30;;;16.50;99.90;;;;;;5010059;28;20140;-84
2023/09/09 04:35:33;;;;;;;19.67;15.52;;;16.40;99.90;;;;;;5021252;28;20041;-84
2023/09/09 04:38:00;;;;;;;28.38;18.70;;;16.40;99.90;;;;;;5010475;28;20120;-85
2023/09/09 04:40:26;;;;;;;20.42;17.45;;;16.40;99.90;;;;;;5002062;28;20456;-84
2023/09/09 04:42:52;;;;;;;22.13;17.58;;;16.40;99.90;;;;;;5013769;28;20037;-84
2023/09/09 04:45:17;;;;;;;21.85;18.92;;;16.40;99.90;;;;;;5017091;28;20038;-84
2023/09/09 04:47:43;;;;;;;27.02;20.67;;;16.40;99.90;;;;;;5013940;28;20068;-84
2023/09/09 04:50:10;;;;;;;22.88;19.00;;;16.50;99.90;;;;;;5007687;28;20136;-84
2023/09/09 04:52:35;;;;;;;25.65;21.88;;;16.50;99.90;;;;;;5017821;28;20403;-84
2023/09/09 04:55:03;;;;;;;24.58;20.27;;;16.50;99.90;;;;;;5007428;28;20438;-84
2023/09/09 04:57:28;;;;;;;22.63;19.95;;;16.50;99.90;;;;;;5011418;28;20045;-84
2023/09/09 04:59:54;;;;;;;23.55;18.17;;;16.50;99.90;;;;;;5018130;28;20047;-84
2023/09/09 05:02:23;;;;;;;24.23;19.45;;;16.50;99.90;;;;;;5007156;28;20397;-85
2023/09/09 05:04:51;;;;;;;24.05;20.35;;;16.50;99.90;;;;;;5007515;28;20103;-84
2023/09/09 05:07:17;;;;;;;27.23;20.70;;;16.60;99.90;;;;;;5024559;28;20029;-84
2023/09/09 05:09:42;;;;;;;22.10;19.02;;;16.50;99.90;;;;;;5028544;28;20049;-84
2023/09/09 05:12:08;;;;;;;24.80;20.33;;;16.50;99.90;;;;;;5009557;28;20373;-84
2023/09/09 05:14:34;;;;;;;21.42;18.45;;;16.60;99.90;;;;;;5017106;28;20052;-84
2023/09/09 05:17:02;;;;;;;21.88;18.58;;;16.50;99.90;;;;;;5028676;28;20044;-84
2023/09/09 05:19:28;;;;;;;24.75;20.15;;;16.60;99.90;;;;;;5016516;28;20095;-83
2023/09/09 05:21:54;;;;;;;33.95;23.23;;;16.60;99.90;;;;;;5004544;28;20113;-84
2023/09/09 05:24:19;;;;;;;29.38;22.60;;;16.70;99.90;;;;;;5018116;28;20534;-84
2023/09/09 05:26:45;;;;;;;27.45;22.00;;;16.60;99.90;;;;;;5009153;28;20576;-84
2023/09/09 05:29:11;;;;;;;27.15;20.58;;;16.70;99.90;;;;;;5026104;28;20048;-84
2023/09/09 05:31:36;;;;;;;26.00;20.63;;;16.70;99.90;;;;;;5002396;28;20461;-85
2023/09/09 05:34:02;;;;;;;28.48;21.42;;;16.70;99.90;;;;;;5032008;28;20050;-85
2023/09/09 05:36:28;;;;;;;25.38;21.02;;;16.80;99.90;;;;;;5011705;28;20230;-84
2023/09/09 05:38:59;;;;;;;28.40;22.42;;;16.90;99.90;;;;;;5027311;28;20216;-84
2023/09/09 05:41:31;;;;;;;24.23;20.35;;;16.90;99.90;;;;;;5028011;28;20041;-85
2023/09/09 05:43:57;;;;;;;27.73;21.85;;;16.80;99.90;;;;;;5025443;28;20045;-84
2023/09/09 05:46:23;;;;;;;31.45;24.00;;;17.00;99.90;;;;;;4997416;28;20446;-85
2023/09/09 05:48:52;;;;;;;31.33;22.38;;;17.00;99.90;;;;;;5016715;28;20056;-85
2023/09/09 05:51:18;;;;;;;28.85;22.92;;;17.00;99.90;;;;;;5011793;28;20046;-84
2023/09/09 05:53:44;;;;;;;28.85;22.30;;;17.10;99.90;;;;;;5021026;28;20037;-85
2023/09/09 05:56:10;;;;;;;26.80;21.70;;;17.10;99.90;;;;;;5014716;28;20588;-84
2023/09/09 05:58:36;;;;;;;32.10;22.65;;;17.20;99.90;;;;;;5019566;28;20075;-85
2023/09/09 06:01:02;;;;;;;24.30;18.38;;;17.30;99.90;;;;;;5019744;28;20069;-85
2023/09/09 06:03:29;;;;;;;34.45;22.98;;;17.40;99.90;;;;;;5024152;28;20531;-85
2023/09/09 06:05:55;;;;;;;27.13;23.33;;;17.50;99.90;;;;;;4996810;28;20046;-85
2023/09/09 06:08:20;;;;;;;30.13;23.33;;;17.50;99.90;;;;;;5011262;28;20033;-85
2023/09/09 06:10:46;;;;;;;27.38;22.88;;;17.70;99.90;;;;;;5034189;28;20041;-86
2023/09/09 06:13:12;;;;;;;30.55;23.33;;;17.70;99.90;;;;;;5025255;28;20128;-85
2023/09/09 06:15:37;;;;;;;27.15;23.55;;;17.90;99.90;;;;;;5023406;28;20444;-85
2023/09/09 06:18:04;;;;;;;27.23;23.77;;;18.00;99.90;;;;;;5036806;28;20623;-85
2023/09/09 06:20:29;;;;;;;30.40;23.48;;;18.10;99.90;;;;;;5030913;28;20052;-85
2023/09/09 06:22:55;;;;;;;28.13;22.92;;;18.20;99.90;;;;;;5033367;28;20033;-85
2023/09/09 06:25:21;;;;;;;32.00;23.50;;;18.30;99.90;;;;;;5019084;28;20044;-85
2023/09/09 06:27:46;;;;;;;28.58;22.23;;;18.50;99.90;;;;;;5024494;28;20663;-85
2023/09/09 06:30:12;;;;;;;30.42;24.42;;;18.60;99.90;;;;;;5017303;28;20145;-86
2023/09/09 06:32:37;;;;;;;30.20;23.95;;;18.70;99.90;;;;;;5016422;28;20249;-85
2023/09/09 06:35:05;;;;;;;29.25;21.98;;;18.80;99.90;;;;;;5029137;28;20038;-84
2023/09/09 06:37:30;;;;;;;30.23;24.52;;;18.90;99.90;;;;;;4999609;28;20076;-85
2023/09/09 06:39:56;;;;;;;27.98;23.30;;;19.00;99.90;;;;;;5019680;28;20121;-85
2023/09/09 06:42:22;;;;;;;29.70;24.50;;;19.10;99.90;;;;;;5027412;28;20064;-85
2023/09/09 06:44:48;;;;;;;30.38;24.20;;;19.30;99.90;;;;;;5019219;28;20048;-85
2023/09/09 06:47:13;;;;;;;31.33;24.45;;;19.40;99.90;;;;;;5028911;28;20057;-85
2023/09/09 06:49:41;;;;;;;28.77;23.90;;;19.50;99.90;;;;;;5022279;28;20034;-85
2023/09/09 06:52:06;;;;;;;32.65;24.65;;;19.50;99.90;;;;;;4959489;28;20042;-85
2023/09/09 06:54:32;;;;;;;27.40;23.05;;;19.70;99.90;;;;;;4997177;28;20405;-86
2023/09/09 06:56:58;;;;;;;28.08;23.92;;;19.80;99.90;;;;;;4980138;28;20580;-85
2023/09/09 06:59:26;;;;;;;28.48;23.25;;;19.90;99.90;;;;;;4970431;28;20047;-85
2023/09/09 07:01:52;;;;;;;27.40;22.30;;;20.00;99.90;;;;;;5006145;28;20217;-85
2023/09/09 07:04:18;;;;;;;28.25;23.25;;;20.00;99.90;;;;;;5018939;28;20038;-85
2023/09/09 07:06:43;;;;;;;25.65;21.90;;;20.20;99.90;;;;;;5002472;28;20035;-85
2023/09/09 07:09:09;;;;;;;27.92;23.80;;;20.30;99.90;;;;;;4971499;28;20050;-86
2023/09/09 07:11:35;;;;;;;28.35;23.00;;;20.40;99.90;;;;;;4985447;28;20330;-85
2023/09/09 07:14:01;;;;;;;27.02;23.27;;;20.50;99.90;;;;;;4964644;28;20401;-85
2023/09/09 07:16:31;;;;;;;28.55;23.38;;;20.50;99.90;;;;;;4991373;28;20061;-86
2023/09/09 07:18:59;;;;;;;31.65;24.38;;;20.60;99.90;;;;;;4970829;28;20046;-86
2023/09/09 07:21:25;;;;;;;27.45;22.52;;;20.70;99.90;;;;;;4969914;28;20041;-85
2023/09/09 07:23:51;;;;;;;29.02;23.63;;;20.80;99.90;;;;;;4990967;28;20472;-85
2023/09/09 07:26:17;;;;;;;28.05;23.02;;;20.90;99.90;;;;;;4988122;28;20034;-86
2023/09/09 07:28:46;;;;;;;29.35;24.30;;;21.00;99.90;;;;;;4969122;28;20049;-86
2023/09/09 07:31:12;;;;;;;33.47;26.30;;;21.10;99.90;;;;;;5021475;28;20045;-86
2023/09/09 07:33:37;;;;;;;29.20;25.40;;;21.10;99.90;;;;;;4985426;28;20042;-85
2023/09/09 07:36:03;;;;;;;33.38;25.67;;;21.10;99.90;;;;;;4989390;28;20049;-85
2023/09/09 07:38:29;;;;;;;35.10;27.02;;;21.20;99.90;;;;;;4986095;28;20069;-86
2023/09/09 07:40:58;;;;;;;33.28;27.30;;;21.30;99.90;;;;;;4972552;28;20546;-85
2023/09/09 07:43:27;;;;;;;32.08;28.00;;;21.30;99.90;;;;;;4995593;28;20042;-86
2023/09/09 07:45:54;;;;;;;33.58;27.25;;;21.40;99.90;;;;;;4988503;28;20133;-86
2023/09/09 07:48:20;;;;;;;39.53;28.65;;;21.50;99.90;;;;;;4984491;28;20038;-86
2023/09/09 07:50:51;;;;;;;32.47;27.20;;;21.60;99.90;;;;;;5006074;28;20172;-86
2023/09/09 07:53:19;;;;;;;32.22;26.90;;;21.60;99.90;;;;;;4965831;28;20054;-87
2023/09/09 07:55:49;;;;;;;34.90;28.13;;;21.60;99.90;;;;;;4968060;28;20049;-87
2023/09/09 07:58:16;;;;;;;32.95;28.83;;;21.70;99.90;;;;;;4986421;28;20035;-87
2023/09/09 08:00:45;;;;;;;33.40;27.60;;;21.80;99.90;;;;;;4987016;28;20509;-86
2023/09/09 08:03:11;;;;;;;39.75;28.60;;;21.90;99.90;;;;;;4965661;28;20084;-86
2023/09/09 08:05:38;;;;;;;35.25;29.02;;;22.00;99.90;;;;;;5009080;28;20031;-86
2023/09/09 08:08:06;;;;;;;36.67;28.25;;;22.10;99.90;;;;;;4971343;28;20034;-86
2023/09/09 08:10:31;;;;;;;31.98;28.30;;;22.30;99.90;;;;;;5017310;28;20053;-86
2023/09/09 08:12:57;;;;;;;36.05;28.48;;;22.40;99.90;;;;;;4973949;28;20050;-87
2023/09/09 08:15:42;;;;;;;33.30;27.08;;;22.40;99.90;;;;;;5015092;28;20057;-87
2023/09/09 08:18:08;;;;;;;34.22;27.95;;;22.50;99.90;;;;;;4999387;28;20050;-86
2023/09/09 08:20:33;;;;;;;32.00;26.30;;;22.50;99.90;;;;;;4981302;28;20046;-86
2023/09/09 08:22:59;;;;;;;34.20;28.15;;;22.70;99.90;;;;;;4976303;28;20362;-87
2023/09/09 08:25:32;;;;;;;33.83;29.42;;;22.80;99.90;;;;;;4979371;28;20042;-86
2023/09/09 08:27:59;;;;;;;39.17;27.70;;;22.90;99.90;;;;;;4976266;28;20038;-86
2023/09/09 08:30:25;;;;;;;33.15;26.90;;;23.00;99.90;;;;;;4985485;28;20141;-86
2023/09/09 08:32:51;;;;;;;40.72;29.50;;;23.10;99.90;;;;;;5008361;28;20046;-86
2023/09/09 08:35:17;;;;;;;30.67;26.98;;;23.10;99.90;;;;;;4978267;28;20069;-87
2023/09/09 08:37:42;;;;;;;30.33;26.17;;;23.30;99.90;;;;;;4968065;28;20049;-86
2023/09/09 08:40:11;;;;;;;32.35;26.48;;;23.40;99.90;;;;;;5001681;28;20038;-86
2023/09/09 08:42:40;;;;;;;33.50;26.42;;;23.50;99.90;;;;;;5015914;28;20038;-87
2023/09/09 08:45:30;;;;;;;39.20;27.27;;;23.60;99.90;;;;;;5011930;28;20045;-87
2023/09/09 08:48:04;;;;;;;33.13;27.25;;;23.60;99.90;;;;;;4988375;28;20514;-88
2023/09/09 08:50:32;;;;;;;36.30;27.63;;;23.80;99.90;;;;;;5012541;28;20159;-87
2023/09/09 08:53:04;;;;;;;33.88;28.45;;;23.90;99.90;;;;;;5012268;28;21549;-88
2023/09/09 08:55:29;;;;;;;32.28;27.75;;;24.00;99.90;;;;;;4986413;28;20093;-88
2023/09/09 08:57:55;;;;;;;33.20;27.85;;;24.00;99.90;;;;;;4977562;28;20048;-88
2023/09/09 09:00:29;;;;;;;33.70;27.75;;;24.20;99.90;;;;;;4958088;28;20115;-87
2023/09/09 09:02:55;;;;;;;36.88;27.98;;;24.40;99.90;;;;;;4984729;28;20041;-88
2023/09/09 09:05:21;;;;;;;31.17;26.92;;;24.20;99.90;;;;;;4987599;28;20034;-87
2023/09/09 09:07:47;;;;;;;33.53;27.80;;;24.40;99.90;;;;;;4980558;28;20047;-87
2023/09/09 09:10:13;;;;;;;33.30;26.55;;;24.40;99.90;;;;;;4996051;28;20046;-88
2023/09/09 09:12:40;;;;;;;31.52;25.65;;;24.60;99.90;;;;;;5013128;28;20050;-87
2023/09/09 09:15:06;;;;;;;31.20;27.60;;;24.70;99.90;;;;;;4998424;28;20481;-89
2023/09/09 09:17:39;;;;;;;31.80;25.80;;;24.60;99.90;;;;;;4967687;28;20049;-88
2023/09/09 09:20:07;;;;;;;30.65;25.15;;;24.70;99.90;;;;;;4990806;28;20088;-87
2023/09/09 09:22:34;;;;;;;29.48;25.48;;;24.50;99.90;;;;;;4987242;28;20041;-88
2023/09/09 09:25:00;;;;;;;29.95;25.25;;;24.80;99.90;;;;;;4971814;28;20505;-86
2023/09/09 09:27:30;;;;;;;28.45;25.08;;;24.90;99.90;;;;;;4972511;28;20033;-89
2023/09/09 09:29:58;;;;;;;28.65;23.83;;;25.00;99.90;;;;;;4973368;28;20046;-87
2023/09/09 09:32:40;;;;;;;29.65;25.98;;;25.00;99.90;;;;;;5002026;28;20121;-88
2023/09/09 09:35:06;;;;;;;26.65;23.33;;;25.10;99.90;;;;;;4985310;28;20078;-87
2023/09/09 09:37:35;;;;;;;28.48;24.15;;;25.20;99.90;;;;;;4970466;28;20088;-87
2023/09/09 09:40:00;;;;;;;28.33;23.33;;;25.40;99.90;;;;;;4991143;28;20568;-87
2023/09/09 09:42:26;;;;;;;27.50;22.52;;;25.50;99.90;;;;;;4980129;28;20039;-87
2023/09/09 09:45:07;;;;;;;24.90;21.70;;;25.60;99.90;;;;;;4983161;28;20447;-88
2023/09/09 09:47:50;;;;;;;25.23;21.00;;;25.70;99.90;;;;;;5014775;28;20076;-89
2023/09/09 09:50:32;;;;;;;26.58;21.45;;;25.60;99.90;;;;;;4981798;28;20264;-87
2023/09/09 09:52:59;;;;;;;24.42;19.92;;;25.90;99.90;;;;;;4962654;28;20524;-87
2023/09/09 09:55:30;;;;;;;22.13;18.95;;;25.80;99.90;;;;;;5002941;28;20042;-87
2023/09/09 09:58:07;;;;;;;21.88;18.58;;;25.90;99.90;;;;;;4968335;28;20042;-87
2023/09/09 10:00:33;;;;;;;19.92;17.50;;;26.10;99.90;;;;;;4986999;28;20050;-87
2023/09/09 10:03:01;;;;;;;21.63;18.33;;;26.00;99.90;;;;;;4984758;28;20046;-88
2023/09/09 10:05:28;;;;;;;22.83;17.70;;;26.20;99.90;;;;;;4960160;28;20486;-88
2023/09/09 10:07:56;;;;;;;21.58;16.35;;;26.30;99.90;;;;;;4969611;28;20052;-87
2023/09/09 10:10:26;;;;;;;20.23;16.77;;;26.50;99.90;;;;;;4971813;28;20101;-87
2023/09/09 10:12:58;;;;;;;21.38;18.00;;;26.60;99.90;;;;;;4979766;28;20043;-88
2023/09/09 10:15:25;;;;;;;24.30;18.02;;;26.40;99.90;;;;;;4966742;28;20126;-87
2023/09/09 10:17:52;;;;;;;22.45;17.58;;;26.50;99.90;;;;;;4967216;28;20053;-86
2023/09/09 10:20:18;;;;;;;20.30;17.30;;;26.60;99.90;;;;;;4959096;28;20129;-86
2023/09/09 10:22:47;;;;;;;21.60;17.65;;;26.60;99.90;;;;;;5003971;28;20117;-86
2023/09/09 10:25:15;;;;;;;20.23;16.55;;;26.70;99.90;;;;;;5009787;28;20514;-85
2023/09/09 10:27:41;;;;;;;18.65;15.98;;;26.60;99.90;;;;;;4989954;28;20035;-85
2023/09/09 10:30:08;;;;;;;20.48;17.27;;;26.80;99.90;;;;;;4980972;28;20405;-86
2023/09/09 10:32:35;;;;;;;18.45;16.23;;;27.10;99.90;;;;;;4993057;28;20169;-86
2023/09/09 10:35:04;;;;;;;22.58;17.20;;;27.20;99.90;;;;;;4969882;28;20042;-86
2023/09/09 10:37:33;;;;;;;21.65;17.58;;;27.10;99.90;;;;;;4980598;28;20130;-85
2023/09/09 10:39:59;;;;;;;19.92;16.63;;;27.00;99.90;;;;;;4990605;28;20045;-85
2023/09/09 10:42:25;;;;;;;21.42;17.52;;;27.20;99.90;;;;;;4984607;28;20176;-85
2023/09/09 10:44:53;;;;;;;19.17;17.05;;;27.00;99.90;;;;;;4999318;28;20378;-85
2023/09/09 10:47:19;;;;;;;19.10;16.27;;;27.10;99.90;;;;;;4989990;28;20053;-85
2023/09/09 10:49:45;;;;;;;18.63;16.73;;;27.20;99.90;;;;;;4982145;28;20053;-85
2023/09/09 10:52:31;;;;;;;18.13;15.77;;;27.30;99.90;;;;;;4986763;28;20312;-85
2023/09/09 10:55:13;;;;;;;20.63;16.13;;;27.50;99.90;;;;;;4999361;28;20054;-86
2023/09/09 10:57:39;;;;;;;20.33;16.30;;;27.20;99.90;;;;;;4967816;28;20100;-85
2023/09/09 11:00:06;;;;;;;19.90;16.15;;;27.40;99.90;;;;;;4990410;28;20046;-85
2023/09/09 11:02:46;;;;;;;19.70;16.95;;;27.60;99.90;;;;;;4994642;28;20029;-85
2023/09/09 11:05:21;;;;;;;19.92;17.52;;;27.90;99.90;;;;;;4966081;28;20046;-85
2023/09/09 11:07:49;;;;;;;22.00;18.13;;;27.70;99.90;;;;;;4996152;28;20034;-86
2023/09/09 11:10:16;;;;;;;24.10;20.00;;;27.80;99.90;;;;;;4971439;28;20034;-85
2023/09/09 11:12:56;;;;;;;21.33;17.45;;;27.70;99.90;;;;;;4978097;28;20108;-86
2023/09/09 11:15:25;;;;;;;23.83;18.13;;;27.90;99.90;;;;;;4972740;28;20502;-86
2023/09/09 11:17:51;;;;;;;20.33;17.95;;;27.90;99.90;;;;;;4991317;28;20041;-86
2023/09/09 11:20:23;;;;;;;20.15;17.75;;;28.00;99.90;;;;;;4987554;28;20149;-85
2023/09/09 11:22:49;;;;;;;20.58;18.38;;;28.00;99.90;;;;;;4987375;28;20092;-86
2023/09/09 11:25:16;;;;;;;21.33;18.50;;;27.80;99.90;;;;;;4975719;28;20066;-86
2023/09/09 11:27:43;;;;;;;22.70;18.55;;;27.70;99.90;;;;;;4977348;28;20250;-85
2023/09/09 11:30:09;;;;;;;20.52;17.50;;;27.90;99.90;;;;;;4988565;28;20493;-85
2023/09/09 11:32:35;;;;;;;23.75;18.67;;;28.20;99.90;;;;;;4993092;28;20038;-85
2023/09/09 11:35:01;;;;;;;21.17;18.35;;;28.20;99.90;;;;;;5003265;28;20117;-85
2023/09/09 11:37:27;;;;;;;23.15;17.15;;;28.00;99.90;;;;;;4976908;28;20442;-85
2023/09/09 11:39:54;;;;;;;20.27;18.08;;;28.20;99.90;;;;;;4977794;28;20081;-85
2023/09/09 11:42:20;;;;;;;21.02;18.15;;;28.00;99.90;;;;;;4992485;28;20070;-85
2023/09/09 11:44:46;;;;;;;21.10;18.00;;;28.10;99.90;;;;;;5019832;28;20685;-86
2023/09/09 11:47:14;;;;;;;19.15;17.15;;;28.40;99.90;;;;;;4986493;28;20498;-86
2023/09/09 11:49:43;;;;;;;20.30;17.30;;;28.20;99.90;;;;;;4987357;28;20497;-86
2023/09/09 11:52:09;;;;;;;26.58;16.83;;;28.10;99.90;;;;;;5013391;28;20133;-85
2023/09/09 11:54:41;;;;;;;22.30;17.70;;;28.10;99.90;;;;;;4973009;28;20401;-85
2023/09/09 11:57:08;;;;;;;18.20;16.30;;;28.20;99.90;;;;;;4969296;28;20069;-86
2023/09/09 11:59:49;;;;;;;16.92;15.10;;;28.40;99.90;;;;;;4971354;28;20052;-86
2023/09/09 12:02:17;;;;;;;20.38;15.40;;;28.10;99.90;;;;;;4979101;28;20681;-86
2023/09/09 12:05:01;;;;;;;16.17;14.13;;;28.20;99.90;;;;;;4992700;28;20038;-86
2023/09/09 12:07:29;;;;;;;15.73;14.13;;;28.60;99.90;;;;;;4966890;28;20100;-85
2023/09/09 12:09:56;;;;;;;18.85;13.90;;;28.60;99.90;;;;;;4964808;28;20113;-85
2023/09/09 12:12:22;;;;;;;18.27;15.43;;;28.90;99.90;;;;;;4973243;28;20905;-86
2023/09/09 12:14:49;;;;;;;17.10;15.10;;;28.50;99.90;;;;;;4967190;28;20039;-86
2023/09/09 12:17:15;;;;;;;16.27;13.90;;;28.50;99.90;;;;;;4988766;28;20041;-85
2023/09/09 12:19:40;;;;;;;15.77;14.13;;;28.60;99.90;;;;;;4966607;28;20034;-85
2023/09/09 12:22:06;;;;;;;17.48;13.32;;;28.20;99.90;;;;;;4982646;28;20121;-85
2023/09/09 12:24:41;;;;;;;14.80;13.05;;;28.20;99.90;;;;;;4978121;28;20094;-85
2023/09/09 12:27:07;;;;;;;16.13;11.63;;;28.50;99.90;;;;;;5013001;28;20042;-86
2023/09/09 12:29:43;;;;;;;13.35;11.95;;;29.00;99.90;;;;;;5015505;28;20124;-86
2023/09/09 12:32:09;;;;;;;14.40;11.32;;;28.80;99.90;;;;;;5004763;28;20121;-86